sensor_id;sensor_type;location;lat;lon;timestamp;pressure;altitude;pressure_sealevel;temperature;humidity
19736;BME280;32064;49.310;8.646;2023-06-26T00:02:17;100330.94;;;25.11;51.32
19736;BME280;32064;49.310;8.646;2023-06-26T00:04:43;100330.09;;;25.10;51.20
19736;BME280;32064;49.310;8.646;2023-06-26T00:07:10;100332.38;;;25.07;51.89
19736;BME280;32064;49.310;8.646;2023-06-26T00:09:36;100335.06;;;25.00;51.78
19736;BME280;32064;49.310;8.646;2023-06-26T00:12:01;100332.97;;;24.96;52.19
19736;BME280;32064;49.310;8.646;2023-06-26T00:14:27;100331.50;;;24.93;52.60
19736;BME280;32064;49.310;8.646;2023-06-26T00:16:52;100331.28;;;24.88;52.21
19736;BME280;32064;49.310;8.646;2023-06-26T00:19:18;100324.25;;;24.87;52.84
19736;BME280;32064;49.310;8.646;2023-06-26T00:21:44;100336.47;;;24.83;52.40
19736;BME280;32064;49.310;8.646;2023-06-26T00:24:12;100324.66;;;24.77;52.92
19736;BME280;32064;49.310;8.646;2023-06-26T00:26:38;100325.25;;;24.73;52.90
19736;BME280;32064;49.310;8.646;2023-06-26T00:29:04;100333.50;;;24.71;53.00
19736;BME280;32064;49.310;8.646;2023-06-26T00:31:30;100325.22;;;24.66;52.96
19736;BME280;32064;49.310;8.646;2023-06-26T00:33:55;100328.31;;;24.63;53.23
19736;BME280;32064;49.310;8.646;2023-06-26T00:36:20;100324.34;;;24.59;53.38
19736;BME280;32064;49.310;8.646;2023-06-26T00:38:49;100328.28;;;24.56;53.66
19736;BME280;32064;49.310;8.646;2023-06-26T00:41:15;100331.38;;;24.53;54.00
19736;BME280;32064;49.310;8.646;2023-06-26T00:43:40;100327.22;;;24.51;53.46
19736;BME280;32064;49.310;8.646;2023-06-26T00:46:08;100325.16;;;24.46;53.74
19736;BME280;32064;49.310;8.646;2023-06-26T00:48:34;100329.91;;;24.44;54.49
19736;BME280;32064;49.310;8.646;2023-06-26T00:51:00;100327.97;;;24.38;54.12
19736;BME280;32064;49.310;8.646;2023-06-26T00:53:27;100322.16;;;24.34;54.71
19736;BME280;32064;49.310;8.646;2023-06-26T00:55:52;100322.94;;;24.28;54.93
19736;BME280;32064;49.310;8.646;2023-06-26T00:58:19;100322.72;;;24.23;55.60
19736;BME280;32064;49.310;8.646;2023-06-26T01:00:45;100323.50;;;24.17;55.56
19736;BME280;32064;49.310;8.646;2023-06-26T01:03:11;100317.28;;;24.10;56.26
19736;BME280;32064;49.310;8.646;2023-06-26T01:05:37;100315.16;;;24.05;56.51
19736;BME280;32064;49.310;8.646;2023-06-26T01:08:03;100319.28;;;24.01;56.25
19736;BME280;32064;49.310;8.646;2023-06-26T01:10:30;100323.59;;;23.95;56.63
19736;BME280;32064;49.310;8.646;2023-06-26T01:12:57;100324.00;;;23.92;56.49
19736;BME280;32064;49.310;8.646;2023-06-26T01:15:23;100313.66;;;23.89;56.91
19736;BME280;32064;49.310;8.646;2023-06-26T01:17:49;100321.06;;;23.87;57.63
19736;BME280;32064;49.310;8.646;2023-06-26T01:20:16;100323.13;;;23.85;57.38
19736;BME280;32064;49.310;8.646;2023-06-26T01:22:54;100320.19;;;23.80;57.60
19736;BME280;32064;49.310;8.646;2023-06-26T01:28:10;100316.47;;;23.81;56.33
19736;BME280;32064;49.310;8.646;2023-06-26T01:30:41;100311.50;;;23.78;56.29
19736;BME280;32064;49.310;8.646;2023-06-26T01:33:08;100311.44;;;23.71;55.92
19736;BME280;32064;49.310;8.646;2023-06-26T01:35:34;100313.28;;;23.71;56.07
19736;BME280;32064;49.310;8.646;2023-06-26T01:38:17;100312.97;;;23.59;56.92
19736;BME280;32064;49.310;8.646;2023-06-26T01:40:43;100314.88;;;23.65;55.81
19736;BME280;32064;49.310;8.646;2023-06-26T01:43:54;100309.84;;;23.56;56.43
19736;BME280;32064;49.310;8.646;2023-06-26T01:46:17;100305.84;;;23.45;56.57
19736;BME280;32064;49.310;8.646;2023-06-26T01:51:41;100309.09;;;23.40;56.90
19736;BME280;32064;49.310;8.646;2023-06-26T01:54:13;100316.97;;;23.42;56.22
19736;BME280;32064;49.310;8.646;2023-06-26T01:56:40;100316.75;;;23.43;56.93
19736;BME280;32064;49.310;8.646;2023-06-26T01:59:07;100316.31;;;23.40;56.14
19736;BME280;32064;49.310;8.646;2023-06-26T02:01:33;100309.47;;;23.37;56.12
19736;BME280;32064;49.310;8.646;2023-06-26T02:03:59;100322.66;;;23.32;56.74
19736;BME280;32064;49.310;8.646;2023-06-26T02:06:25;100322.88;;;23.30;57.34
19736;BME280;32064;49.310;8.646;2023-06-26T02:08:50;100320.88;;;23.18;56.57
19736;BME280;32064;49.310;8.646;2023-06-26T02:11:16;100326.63;;;23.15;57.51
19736;BME280;32064;49.310;8.646;2023-06-26T02:13:41;100325.34;;;23.11;57.16
19736;BME280;32064;49.310;8.646;2023-06-26T02:16:07;100329.16;;;23.01;57.92
19736;BME280;32064;49.310;8.646;2023-06-26T02:18:32;100317.63;;;22.86;58.51
19736;BME280;32064;49.310;8.646;2023-06-26T02:21:03;100319.22;;;22.80;58.63
19736;BME280;32064;49.310;8.646;2023-06-26T02:23:29;100317.03;;;22.69;59.08
19736;BME280;32064;49.310;8.646;2023-06-26T02:25:54;100317.50;;;22.58;58.96
19736;BME280;32064;49.310;8.646;2023-06-26T02:28:20;100311.97;;;22.59;58.74
19736;BME280;32064;49.310;8.646;2023-06-26T02:30:45;100307.22;;;22.61;59.31
19736;BME280;32064;49.310;8.646;2023-06-26T02:33:10;100309.09;;;22.61;58.40
19736;BME280;32064;49.310;8.646;2023-06-26T02:35:36;100319.00;;;22.60;59.38
19736;BME280;32064;49.310;8.646;2023-06-26T02:38:01;100316.88;;;22.56;58.98
19736;BME280;32064;49.310;8.646;2023-06-26T02:40:27;100318.66;;;22.49;59.41
19736;BME280;32064;49.310;8.646;2023-06-26T02:42:52;100318.44;;;22.50;59.09
19736;BME280;32064;49.310;8.646;2023-06-26T02:45:18;100326.88;;;22.47;59.13
19736;BME280;32064;49.310;8.646;2023-06-26T02:47:43;100322.84;;;22.36;59.43
19736;BME280;32064;49.310;8.646;2023-06-26T02:50:09;100324.50;;;22.37;59.73
19736;BME280;32064;49.310;8.646;2023-06-26T02:52:34;100325.31;;;22.38;59.16
19736;BME280;32064;49.310;8.646;2023-06-26T02:55:00;100322.34;;;22.33;59.75
19736;BME280;32064;49.310;8.646;2023-06-26T02:57:25;100333.06;;;22.33;59.62
19736;BME280;32064;49.310;8.646;2023-06-26T02:59:51;100331.97;;;22.27;60.33
19736;BME280;32064;49.310;8.646;2023-06-26T03:02:16;100320.34;;;22.20;60.15
19736;BME280;32064;49.310;8.646;2023-06-26T03:04:41;100333.53;;;22.22;60.39
19736;BME280;32064;49.310;8.646;2023-06-26T03:07:08;100336.88;;;22.24;59.88
19736;BME280;32064;49.310;8.646;2023-06-26T03:09:34;100339.09;;;22.20;59.93
19736;BME280;32064;49.310;8.646;2023-06-26T03:11:59;100344.91;;;22.24;60.82
19736;BME280;32064;49.310;8.646;2023-06-26T03:14:25;100338.91;;;22.22;60.17
19736;BME280;32064;49.310;8.646;2023-06-26T03:16:52;100347.59;;;22.24;59.92
19736;BME280;32064;49.310;8.646;2023-06-26T03:19:18;100339.94;;;22.21;59.67
19736;BME280;32064;49.310;8.646;2023-06-26T03:21:43;100345.66;;;22.17;59.90
19736;BME280;32064;49.310;8.646;2023-06-26T03:24:09;100344.81;;;22.17;60.26
19736;BME280;32064;49.310;8.646;2023-06-26T03:26:34;100340.97;;;22.19;60.55
19736;BME280;32064;49.310;8.646;2023-06-26T03:29:00;100339.09;;;22.20;60.69
19736;BME280;32064;49.310;8.646;2023-06-26T03:31:25;100333.38;;;22.23;59.86
19736;BME280;32064;49.310;8.646;2023-06-26T03:33:50;100340.59;;;22.23;60.61
19736;BME280;32064;49.310;8.646;2023-06-26T03:36:16;100337.53;;;22.26;60.47
19736;BME280;32064;49.310;8.646;2023-06-26T03:38:41;100333.81;;;22.27;60.32
19736;BME280;32064;49.310;8.646;2023-06-26T03:41:07;100342.69;;;22.27;59.71
19736;BME280;32064;49.310;8.646;2023-06-26T03:43:32;100330.13;;;22.28;60.19
19736;BME280;32064;49.310;8.646;2023-06-26T03:45:58;100330.13;;;22.28;60.04
19736;BME280;32064;49.310;8.646;2023-06-26T03:48:23;100331.59;;;22.30;60.13
19736;BME280;32064;49.310;8.646;2023-06-26T03:50:48;100336.78;;;22.32;60.43
19736;BME280;32064;49.310;8.646;2023-06-26T03:53:14;100333.91;;;22.33;60.20
19736;BME280;32064;49.310;8.646;2023-06-26T03:55:39;100332.63;;;22.29;60.46
19736;BME280;32064;49.310;8.646;2023-06-26T03:58:05;100334.09;;;22.32;60.56
19736;BME280;32064;49.310;8.646;2023-06-26T04:00:30;100336.59;;;22.33;60.63
19736;BME280;32064;49.310;8.646;2023-06-26T04:02:56;100333.66;;;22.28;59.95
19736;BME280;32064;49.310;8.646;2023-06-26T04:05:22;100329.94;;;22.29;60.09
19736;BME280;32064;49.310;8.646;2023-06-26T04:07:51;100329.56;;;22.32;60.14
19736;BME280;32064;49.310;8.646;2023-06-26T04:10:17;100333.72;;;22.35;59.48
19736;BME280;32064;49.310;8.646;2023-06-26T04:12:43;100343.06;;;22.39;60.24
19736;BME280;32064;49.310;8.646;2023-06-26T04:15:08;100334.84;;;22.40;59.57
19736;BME280;32064;49.310;8.646;2023-06-26T04:17:34;100344.91;;;22.38;60.27
19736;BME280;32064;49.310;8.646;2023-06-26T04:19:59;100344.53;;;22.41;60.05
19736;BME280;32064;49.310;8.646;2023-06-26T04:22:25;100347.94;;;22.50;60.09
19736;BME280;32064;49.310;8.646;2023-06-26T04:24:51;100353.97;;;22.52;60.20
19736;BME280;32064;49.310;8.646;2023-06-26T04:27:17;100353.13;;;22.52;59.85
19736;BME280;32064;49.310;8.646;2023-06-26T04:29:43;100357.94;;;22.56;59.60
19736;BME280;32064;49.310;8.646;2023-06-26T04:32:09;100363.31;;;22.56;60.12
19736;BME280;32064;49.310;8.646;2023-06-26T04:34:34;100352.22;;;22.59;60.21
19736;BME280;32064;49.310;8.646;2023-06-26T04:37:01;100361.16;;;22.67;59.96
19736;BME280;32064;49.310;8.646;2023-06-26T04:39:29;100361.88;;;22.75;60.22
19736;BME280;32064;49.310;8.646;2023-06-26T04:41:55;100356.13;;;22.78;59.42
19736;BME280;32064;49.310;8.646;2023-06-26T04:44:21;100354.53;;;22.84;60.50
19736;BME280;32064;49.310;8.646;2023-06-26T04:46:46;100358.53;;;22.88;59.82
19736;BME280;32064;49.310;8.646;2023-06-26T04:49:11;100346.59;;;22.91;59.50
19736;BME280;32064;49.310;8.646;2023-06-26T04:51:37;100354.94;;;22.96;59.54
19736;BME280;32064;49.310;8.646;2023-06-26T04:54:10;100358.69;;;23.01;59.75
19736;BME280;32064;49.310;8.646;2023-06-26T04:56:36;100356.66;;;23.03;59.17
19736;BME280;32064;49.310;8.646;2023-06-26T04:59:01;100362.47;;;23.07;58.87
19736;BME280;32064;49.310;8.646;2023-06-26T05:01:27;100358.00;;;23.14;59.21
19736;BME280;32064;49.310;8.646;2023-06-26T05:03:55;100362.16;;;23.17;59.49
19736;BME280;32064;49.310;8.646;2023-06-26T05:06:21;100356.84;;;23.23;59.31
19736;BME280;32064;49.310;8.646;2023-06-26T05:08:47;100361.00;;;23.26;58.82
19736;BME280;32064;49.310;8.646;2023-06-26T05:11:12;100357.19;;;23.35;58.62
19736;BME280;32064;49.310;8.646;2023-06-26T05:13:37;100352.31;;;23.45;59.13
19736;BME280;32064;49.310;8.646;2023-06-26T05:16:03;100361.19;;;23.46;58.53
19736;BME280;32064;49.310;8.646;2023-06-26T05:18:28;100355.66;;;23.47;58.25
19736;BME280;32064;49.310;8.646;2023-06-26T05:20:54;100348.69;;;23.53;58.10
19736;BME280;32064;49.310;8.646;2023-06-26T05:23:20;100350.75;;;23.58;58.05
19736;BME280;32064;49.310;8.646;2023-06-26T05:25:46;100350.59;;;23.59;58.31
19736;BME280;32064;49.310;8.646;2023-06-26T05:28:12;100355.59;;;23.69;57.61
19736;BME280;32064;49.310;8.646;2023-06-26T05:30:40;100355.31;;;23.79;57.83
19736;BME280;32064;49.310;8.646;2023-06-26T05:33:07;100348.34;;;23.84;57.64
19736;BME280;32064;49.310;8.646;2023-06-26T05:35:36;100360.34;;;23.88;57.54
19736;BME280;32064;49.310;8.646;2023-06-26T05:38:01;100359.41;;;24.03;57.25
19736;BME280;32064;49.310;8.646;2023-06-26T05:40:27;100360.94;;;24.12;56.46
19736;BME280;32064;49.310;8.646;2023-06-26T05:42:53;100351.47;;;24.23;56.69
19736;BME280;32064;49.310;8.646;2023-06-26T05:45:18;100354.41;;;24.34;56.44
19736;BME280;32064;49.310;8.646;2023-06-26T05:47:44;100351.56;;;24.42;56.32
19736;BME280;32064;49.310;8.646;2023-06-26T05:50:10;100361.38;;;24.50;56.07
19736;BME280;32064;49.310;8.646;2023-06-26T05:52:36;100362.00;;;24.52;55.82
19736;BME280;32064;49.310;8.646;2023-06-26T05:55:02;100360.41;;;24.64;55.07
19736;BME280;32064;49.310;8.646;2023-06-26T05:57:29;100361.09;;;24.80;54.47
19736;BME280;32064;49.310;8.646;2023-06-26T05:59:55;100361.09;;;24.86;54.65
19736;BME280;32064;49.310;8.646;2023-06-26T06:02:21;100366.72;;;24.92;54.93
19736;BME280;32064;49.310;8.646;2023-06-26T06:04:47;100373.16;;;25.04;54.15
19736;BME280;32064;49.310;8.646;2023-06-26T06:07:12;100362.47;;;25.17;54.11
19736;BME280;32064;49.310;8.646;2023-06-26T06:09:41;100370.53;;;25.30;53.66
19736;BME280;32064;49.310;8.646;2023-06-26T06:12:07;100374.91;;;25.45;52.96
19736;BME280;32064;49.310;8.646;2023-06-26T06:14:33;100366.66;;;25.60;52.75
19736;BME280;32064;49.310;8.646;2023-06-26T06:16:59;100372.44;;;25.70;52.41
19736;BME280;32064;49.310;8.646;2023-06-26T06:19:25;100361.66;;;25.70;52.92
19736;BME280;32064;49.310;8.646;2023-06-26T06:21:50;100361.09;;;25.88;51.91
19736;BME280;32064;49.310;8.646;2023-06-26T06:24:16;100374.72;;;26.06;52.42
19736;BME280;32064;49.310;8.646;2023-06-26T06:26:41;100371.41;;;26.17;52.01
19736;BME280;32064;49.310;8.646;2023-06-26T06:29:07;100372.59;;;26.35;51.98
19736;BME280;32064;49.310;8.646;2023-06-26T06:31:32;100365.94;;;26.44;51.64
19736;BME280;32064;49.310;8.646;2023-06-26T06:33:58;100368.41;;;26.46;51.81
19736;BME280;32064;49.310;8.646;2023-06-26T06:36:23;100365.03;;;26.63;50.98
19736;BME280;32064;49.310;8.646;2023-06-26T06:38:49;100368.72;;;26.82;50.62
19736;BME280;32064;49.310;8.646;2023-06-26T06:41:14;100352.66;;;26.94;50.78
19736;BME280;32064;49.310;8.646;2023-06-26T06:43:40;100356.06;;;27.15;50.71
19736;BME280;32064;49.310;8.646;2023-06-26T06:46:06;100374.84;;;27.41;50.19
19736;BME280;32064;49.310;8.646;2023-06-26T06:48:31;100375.69;;;27.67;50.33
19736;BME280;32064;49.310;8.646;2023-06-26T06:50:57;100366.00;;;27.84;49.61
19736;BME280;32064;49.310;8.646;2023-06-26T06:53:23;100372.47;;;28.02;48.63
19736;BME280;32064;49.310;8.646;2023-06-26T06:55:49;100365.38;;;28.26;48.47
19736;BME280;32064;49.310;8.646;2023-06-26T06:58:15;100363.91;;;28.48;48.22
19736;BME280;32064;49.310;8.646;2023-06-26T07:00:42;100359.84;;;28.57;47.94
19736;BME280;32064;49.310;8.646;2023-06-26T07:03:07;100350.38;;;28.78;47.74
19736;BME280;32064;49.310;8.646;2023-06-26T07:05:33;100354.63;;;28.74;46.91
19736;BME280;32064;49.310;8.646;2023-06-26T07:07:58;100354.94;;;28.96;47.23
19736;BME280;32064;49.310;8.646;2023-06-26T07:10:24;100364.09;;;29.14;46.93
19736;BME280;32064;49.310;8.646;2023-06-26T07:12:49;100350.38;;;29.39;46.14
19736;BME280;32064;49.310;8.646;2023-06-26T07:15:16;100350.63;;;29.49;45.85
19736;BME280;32064;49.310;8.646;2023-06-26T07:17:42;100357.72;;;29.62;45.35
19736;BME280;32064;49.310;8.646;2023-06-26T07:20:08;100351.66;;;29.78;45.22
19736;BME280;32064;49.310;8.646;2023-06-26T07:22:38;100351.50;;;29.96;45.23
19736;BME280;32064;49.310;8.646;2023-06-26T07:25:03;100352.78;;;30.06;44.84
19736;BME280;32064;49.310;8.646;2023-06-26T07:27:29;100348.56;;;30.22;44.90
19736;BME280;32064;49.310;8.646;2023-06-26T07:29:55;100345.31;;;30.48;44.72
19736;BME280;32064;49.310;8.646;2023-06-26T07:32:21;100341.69;;;30.71;44.17
19736;BME280;32064;49.310;8.646;2023-06-26T07:34:46;100339.41;;;30.92;44.17
19736;BME280;32064;49.310;8.646;2023-06-26T07:37:12;100335.63;;;31.09;43.20
19736;BME280;32064;49.310;8.646;2023-06-26T07:39:37;100339.94;;;31.22;42.47
19736;BME280;32064;49.310;8.646;2023-06-26T07:42:03;100341.38;;;31.42;42.13
19736;BME280;32064;49.310;8.646;2023-06-26T07:44:28;100342.38;;;31.52;42.05
19736;BME280;32064;49.310;8.646;2023-06-26T07:46:54;100346.16;;;31.68;40.94
19736;BME280;32064;49.310;8.646;2023-06-26T07:49:19;100351.81;;;31.84;40.79
19736;BME280;32064;49.310;8.646;2023-06-26T07:51:44;100340.34;;;31.98;40.29
19736;BME280;32064;49.310;8.646;2023-06-26T07:54:10;100349.13;;;32.23;40.48
19736;BME280;32064;49.310;8.646;2023-06-26T07:59:17;100340.09;;;33.74;37.77
19736;BME280;32064;49.310;8.646;2023-06-26T08:01:43;100341.13;;;33.68;38.41
19736;BME280;32064;49.310;8.646;2023-06-26T08:04:08;100345.84;;;33.78;37.91
19736;BME280;32064;49.310;8.646;2023-06-26T08:06:36;100343.81;;;34.01;38.80
19736;BME280;32064;49.310;8.646;2023-06-26T08:09:06;100351.63;;;35.13;36.75
19736;BME280;32064;49.310;8.646;2023-06-26T08:11:33;100354.44;;;37.72;33.18
19736;BME280;32064;49.310;8.646;2023-06-26T08:13:58;100351.25;;;39.18;30.70
19736;BME280;32064;49.310;8.646;2023-06-26T08:16:24;100359.41;;;40.03;29.48
19736;BME280;32064;49.310;8.646;2023-06-26T08:18:49;100365.78;;;40.95;28.85
19736;BME280;32064;49.310;8.646;2023-06-26T08:21:14;100352.34;;;41.47;27.86
19736;BME280;32064;49.310;8.646;2023-06-26T08:23:40;100359.84;;;42.09;27.88
19736;BME280;32064;49.310;8.646;2023-06-26T08:26:05;100354.97;;;42.14;27.29
19736;BME280;32064;49.310;8.646;2023-06-26T08:28:31;100351.19;;;42.59;26.35
19736;BME280;32064;49.310;8.646;2023-06-26T08:30:56;100353.38;;;41.82;26.84
19736;BME280;32064;49.310;8.646;2023-06-26T08:33:22;100358.91;;;41.82;26.99
19736;BME280;32064;49.310;8.646;2023-06-26T08:35:47;100352.50;;;42.70;26.34
19736;BME280;32064;49.310;8.646;2023-06-26T08:38:12;100373.06;;;42.95;25.68
19736;BME280;32064;49.310;8.646;2023-06-26T08:40:38;100361.16;;;43.03;25.79
19736;BME280;32064;49.310;8.646;2023-06-26T08:43:04;100359.50;;;43.46;25.45
19736;BME280;32064;49.310;8.646;2023-06-26T08:45:30;100359.69;;;41.74;26.91
19736;BME280;32064;49.310;8.646;2023-06-26T08:48:00;100371.69;;;41.24;26.58
19736;BME280;32064;49.310;8.646;2023-06-26T08:50:28;100372.78;;;41.15;26.92
19736;BME280;32064;49.310;8.646;2023-06-26T08:53:03;100380.88;;;41.34;27.13
19736;BME280;32064;49.310;8.646;2023-06-26T08:55:31;100380.16;;;42.53;26.05
19736;BME280;32064;49.310;8.646;2023-06-26T08:57:57;100372.91;;;41.10;27.58
19736;BME280;32064;49.310;8.646;2023-06-26T09:00:23;100373.72;;;40.60;27.42
19736;BME280;32064;49.310;8.646;2023-06-26T09:02:48;100376.72;;;41.90;26.64
19736;BME280;32064;49.310;8.646;2023-06-26T09:05:14;100376.72;;;41.00;27.79
19736;BME280;32064;49.310;8.646;2023-06-26T09:07:40;100370.84;;;41.91;26.47
19736;BME280;32064;49.310;8.646;2023-06-26T09:10:06;100376.25;;;42.63;26.08
19736;BME280;32064;49.310;8.646;2023-06-26T09:12:33;100380.06;;;42.75;25.61
19736;BME280;32064;49.310;8.646;2023-06-26T09:14:59;100374.50;;;40.88;27.84
19736;BME280;32064;49.310;8.646;2023-06-26T09:17:28;100378.94;;;41.57;26.63
19736;BME280;32064;49.310;8.646;2023-06-26T09:19:54;100377.97;;;40.94;27.71
19736;BME280;32064;49.310;8.646;2023-06-26T09:22:19;100378.13;;;39.59;28.29
19736;BME280;32064;49.310;8.646;2023-06-26T09:24:45;100389.59;;;38.96;29.81
19736;BME280;32064;49.310;8.646;2023-06-26T09:27:11;100393.16;;;40.55;28.03
19736;BME280;32064;49.310;8.646;2023-06-26T09:29:36;100392.31;;;41.63;26.56
19736;BME280;32064;49.310;8.646;2023-06-26T09:32:02;100386.19;;;42.06;26.47
19736;BME280;32064;49.310;8.646;2023-06-26T09:34:32;100399.38;;;41.33;27.42
19736;BME280;32064;49.310;8.646;2023-06-26T09:36:58;100399.72;;;41.09;27.51
19736;BME280;32064;49.310;8.646;2023-06-26T09:39:24;100400.00;;;41.08;27.26
19736;BME280;32064;49.310;8.646;2023-06-26T09:41:50;100381.59;;;41.03;27.39
19736;BME280;32064;49.310;8.646;2023-06-26T09:44:15;100388.22;;;40.10;28.57
19736;BME280;32064;49.310;8.646;2023-06-26T09:46:41;100388.47;;;40.42;27.77
19736;BME280;32064;49.310;8.646;2023-06-26T09:49:10;100386.03;;;40.90;27.97
19736;BME280;32064;49.310;8.646;2023-06-26T09:51:38;100381.59;;;40.53;27.87
19736;BME280;32064;49.310;8.646;2023-06-26T09:54:04;100387.50;;;41.78;26.84
19736;BME280;32064;49.310;8.646;2023-06-26T09:56:31;100386.50;;;42.45;25.83
19736;BME280;32064;49.310;8.646;2023-06-26T09:59:02;100379.91;;;43.07;25.44
19736;BME280;32064;49.310;8.646;2023-06-26T10:01:29;100369.31;;;43.17;25.47
19736;BME280;32064;49.310;8.646;2023-06-26T10:03:55;100364.59;;;43.18;25.92
19736;BME280;32064;49.310;8.646;2023-06-26T10:06:41;100371.75;;;43.27;25.51
19736;BME280;32064;49.310;8.646;2023-06-26T10:09:09;100375.28;;;43.45;25.21
19736;BME280;32064;49.310;8.646;2023-06-26T10:11:41;100380.69;;;44.06;24.55
19736;BME280;32064;49.310;8.646;2023-06-26T10:14:11;100358.19;;;43.90;24.67
19736;BME280;32064;49.310;8.646;2023-06-26T10:16:37;100364.91;;;44.28;24.28
19736;BME280;32064;49.310;8.646;2023-06-26T10:19:06;100366.31;;;44.64;24.40
19736;BME280;32064;49.310;8.646;2023-06-26T10:21:34;100368.69;;;44.95;24.22
19736;BME280;32064;49.310;8.646;2023-06-26T10:24:00;100363.47;;;45.14;23.41
19736;BME280;32064;49.310;8.646;2023-06-26T10:26:28;100364.41;;;45.18;23.87
19736;BME280;32064;49.310;8.646;2023-06-26T10:28:55;100360.28;;;45.24;23.17
19736;BME280;32064;49.310;8.646;2023-06-26T10:31:26;100357.03;;;45.01;23.36
19736;BME280;32064;49.310;8.646;2023-06-26T10:33:54;100360.06;;;45.09;23.15
19736;BME280;32064;49.310;8.646;2023-06-26T10:36:26;100365.94;;;45.16;23.81
19736;BME280;32064;49.310;8.646;2023-06-26T10:38:56;100362.97;;;45.33;23.37
19736;BME280;32064;49.310;8.646;2023-06-26T10:41:23;100359.97;;;45.38;23.39
19736;BME280;32064;49.310;8.646;2023-06-26T10:46:26;100357.72;;;45.53;23.43
19736;BME280;32064;49.310;8.646;2023-06-26T10:49:01;100367.72;;;45.12;23.78
19736;BME280;32064;49.310;8.646;2023-06-26T10:51:27;100359.69;;;44.26;24.25
19736;BME280;32064;49.310;8.646;2023-06-26T10:53:57;100361.47;;;43.11;24.88
19736;BME280;32064;49.310;8.646;2023-06-26T10:56:55;100365.69;;;41.67;26.05
19736;BME280;32064;49.310;8.646;2023-06-26T10:59:25;100358.63;;;40.94;26.27
19736;BME280;32064;49.310;8.646;2023-06-26T11:01:59;100363.59;;;40.14;28.02
19736;BME280;32064;49.310;8.646;2023-06-26T11:04:47;100375.41;;;39.40;27.63
19736;BME280;32064;49.310;8.646;2023-06-26T11:07:16;100367.75;;;38.80;28.05
19736;BME280;32064;49.310;8.646;2023-06-26T11:10:02;100376.91;;;38.09;29.75
19736;BME280;32064;49.310;8.646;2023-06-26T11:12:39;100384.13;;;37.36;30.03
19736;BME280;32064;49.310;8.646;2023-06-26T11:15:14;100381.91;;;36.99;30.58
19736;BME280;32064;49.310;8.646;2023-06-26T11:17:41;100387.81;;;36.72;30.93
19736;BME280;32064;49.310;8.646;2023-06-26T11:20:09;100384.41;;;36.30;31.68
19736;BME280;32064;49.310;8.646;2023-06-26T11:22:37;100399.47;;;36.33;31.22
19736;BME280;32064;49.310;8.646;2023-06-26T11:25:04;100389.00;;;36.50;31.71
19736;BME280;32064;49.310;8.646;2023-06-26T11:27:50;100368.84;;;37.88;30.80
19736;BME280;32064;49.310;8.646;2023-06-26T11:30:25;100376.16;;;38.03;30.50
19736;BME280;32064;49.310;8.646;2023-06-26T11:32:51;100378.16;;;37.63;30.36
19736;BME280;32064;49.310;8.646;2023-06-26T11:35:23;100386.22;;;37.84;30.15
19736;BME280;32064;49.310;8.646;2023-06-26T11:37:59;100379.53;;;37.90;30.33
19736;BME280;32064;49.310;8.646;2023-06-26T11:40:29;100388.94;;;38.13;30.86
19736;BME280;32064;49.310;8.646;2023-06-26T11:43:00;100388.03;;;38.23;30.61
19736;BME280;32064;49.310;8.646;2023-06-26T11:45:31;100382.84;;;38.40;30.65
19736;BME280;32064;49.310;8.646;2023-06-26T11:47:58;100385.53;;;38.50;29.20
19736;BME280;32064;49.310;8.646;2023-06-26T11:50:24;100382.41;;;38.57;29.61
19736;BME280;32064;49.310;8.646;2023-06-26T11:52:57;100391.78;;;38.56;29.44
19736;BME280;32064;49.310;8.646;2023-06-26T11:55:24;100401.88;;;38.36;29.97
19736;BME280;32064;49.310;8.646;2023-06-26T11:57:52;100391.75;;;38.32;29.75
19736;BME280;32064;49.310;8.646;2023-06-26T12:00:18;100399.72;;;38.33;30.62
19736;BME280;32064;49.310;8.646;2023-06-26T12:02:45;100398.44;;;38.50;30.37
19736;BME280;32064;49.310;8.646;2023-06-26T12:05:12;100403.13;;;38.49;29.85
19736;BME280;32064;49.310;8.646;2023-06-26T12:07:38;100391.78;;;38.56;30.50
19736;BME280;32064;49.310;8.646;2023-06-26T12:10:04;100399.38;;;38.40;30.33
19736;BME280;32064;49.310;8.646;2023-06-26T12:12:31;100402.34;;;37.90;30.70
19736;BME280;32064;49.310;8.646;2023-06-26T12:14:58;100395.38;;;38.03;30.15
19736;BME280;32064;49.310;8.646;2023-06-26T12:17:25;100389.38;;;38.25;29.74
19736;BME280;32064;49.310;8.646;2023-06-26T12:19:50;100397.47;;;38.35;29.19
19736;BME280;32064;49.310;8.646;2023-06-26T12:22:17;100398.75;;;38.48;29.18
19736;BME280;32064;49.310;8.646;2023-06-26T12:24:43;100396.44;;;38.55;29.40
19736;BME280;32064;49.310;8.646;2023-06-26T12:27:10;100396.22;;;38.52;29.03
19736;BME280;32064;49.310;8.646;2023-06-26T12:29:37;100401.44;;;38.53;27.92
19736;BME280;32064;49.310;8.646;2023-06-26T12:32:03;100400.44;;;38.44;27.78
19736;BME280;32064;49.310;8.646;2023-06-26T12:34:33;100397.03;;;38.28;27.72
19736;BME280;32064;49.310;8.646;2023-06-26T12:37:08;100390.00;;;38.17;27.93
19736;BME280;32064;49.310;8.646;2023-06-26T12:39:51;100394.84;;;38.01;28.11
19736;BME280;32064;49.310;8.646;2023-06-26T12:42:18;100405.56;;;38.03;27.43
19736;BME280;32064;49.310;8.646;2023-06-26T12:44:44;100389.56;;;38.05;27.94
19736;BME280;32064;49.310;8.646;2023-06-26T12:47:09;100380.88;;;37.97;27.39
19736;BME280;32064;49.310;8.646;2023-06-26T12:49:43;100382.81;;;37.97;26.93
19736;BME280;32064;49.310;8.646;2023-06-26T12:52:10;100385.75;;;38.06;27.79
19736;BME280;32064;49.310;8.646;2023-06-26T12:54:39;100376.03;;;38.13;27.68
19736;BME280;32064;49.310;8.646;2023-06-26T12:57:06;100378.94;;;37.98;27.20
19736;BME280;32064;49.310;8.646;2023-06-26T12:59:32;100396.97;;;37.80;26.70
19736;BME280;32064;49.310;8.646;2023-06-26T13:01:59;100388.53;;;37.71;27.19